sensor_id;sensor_type;location;lat;lon;timestamp;pressure;altitude;pressure_sealevel;temperature;humidity
41703;BME280;861;48.808;9.006;2022-12-24T00:00:36;96575.44;;;12.06;75.76
41703;BME280;861;48.808;9.006;2022-12-24T00:03:03;96571.84;;;12.16;76.16
41703;BME280;861;48.808;9.006;2022-12-24T00:05:29;96581.44;;;11.94;76.70
41703;BME280;861;48.808;9.006;2022-12-24T00:07:55;96586.22;;;12.20;75.76
41703;BME280;861;48.808;9.006;2022-12-24T00:10:21;96585.00;;;12.24;75.92
41703;BME280;861;48.808;9.006;2022-12-24T00:12:47;96587.13;;;12.10;75.48
41703;BME280;861;48.808;9.006;2022-12-24T00:15:13;96592.06;;;12.22;74.41
41703;BME280;861;48.808;9.006;2022-12-24T00:17:40;96589.69;;;12.24;74.72
41703;BME280;861;48.808;9.006;2022-12-24T00:20:07;96590.56;;;12.14;75.08
41703;BME280;861;48.808;9.006;2022-12-24T00:22:34;96596.66;;;12.28;74.54
41703;BME280;861;48.808;9.006;2022-12-24T00:25:00;96590.41;;;12.28;74.55
41703;BME280;861;48.808;9.006;2022-12-24T00:27:26;96588.38;;;12.35;74.00
41703;BME280;861;48.808;9.006;2022-12-24T00:29:52;96593.53;;;12.30;75.05
41703;BME280;861;48.808;9.006;2022-12-24T00:32:18;96583.47;;;12.20;76.08
41703;BME280;861;48.808;9.006;2022-12-24T00:34:44;96575.75;;;12.15;75.88
41703;BME280;861;48.808;9.006;2022-12-24T00:37:10;96583.44;;;12.23;75.49
41703;BME280;861;48.808;9.006;2022-12-24T00:39:37;96585.81;;;12.21;76.21
41703;BME280;861;48.808;9.006;2022-12-24T00:42:03;96580.59;;;12.00;76.38
41703;BME280;861;48.808;9.006;2022-12-24T00:44:29;96574.38;;;11.96;76.03
41703;BME280;861;48.808;9.006;2022-12-24T00:46:55;96566.63;;;11.91;76.80
41703;BME280;861;48.808;9.006;2022-12-24T00:49:21;96577.22;;;11.86;76.50
41703;BME280;861;48.808;9.006;2022-12-24T00:51:47;96576.69;;;11.54;77.49
41703;BME280;861;48.808;9.006;2022-12-24T00:54:14;96578.91;;;11.69;77.75
41703;BME280;861;48.808;9.006;2022-12-24T00:56:40;96589.69;;;11.87;76.50
41703;BME280;861;48.808;9.006;2022-12-24T00:59:06;96586.88;;;11.97;75.92
41703;BME280;861;48.808;9.006;2022-12-24T01:01:32;96600.16;;;11.92;76.97
41703;BME280;861;48.808;9.006;2022-12-24T01:04:00;96598.97;;;11.93;76.01
41703;BME280;861;48.808;9.006;2022-12-24T01:06:45;96618.06;;;11.93;76.78
41703;BME280;861;48.808;9.006;2022-12-24T01:09:11;96632.47;;;11.97;75.91
41703;BME280;861;48.808;9.006;2022-12-24T01:11:37;96632.88;;;11.92;76.64
41703;BME280;861;48.808;9.006;2022-12-24T01:14:03;96638.44;;;11.85;77.82
41703;BME280;861;48.808;9.006;2022-12-24T01:16:30;96640.69;;;11.90;77.54
41703;BME280;861;48.808;9.006;2022-12-24T01:18:56;96647.09;;;12.13;75.94
41703;BME280;861;48.808;9.006;2022-12-24T01:21:22;96648.88;;;11.90;76.38
41703;BME280;861;48.808;9.006;2022-12-24T01:23:48;96656.31;;;11.89;78.15
41703;BME280;861;48.808;9.006;2022-12-24T01:26:15;96656.75;;;11.81;79.23
41703;BME280;861;48.808;9.006;2022-12-24T01:28:41;96668.81;;;11.83;78.31
41703;BME280;861;48.808;9.006;2022-12-24T01:31:17;96701.38;;;12.04;78.20
41703;BME280;861;48.808;9.006;2022-12-24T01:33:47;96720.19;;;11.95;81.24
41703;BME280;861;48.808;9.006;2022-12-24T01:36:15;96706.81;;;12.08;83.50
41703;BME280;861;48.808;9.006;2022-12-24T01:38:41;96710.50;;;11.84;84.27
41703;BME280;861;48.808;9.006;2022-12-24T01:41:20;96705.56;;;11.68;85.66
41703;BME280;861;48.808;9.006;2022-12-24T01:44:32;96698.97;;;11.62;85.57
41703;BME280;861;48.808;9.006;2022-12-24T01:47:29;96724.47;;;11.28;87.67
41703;BME280;861;48.808;9.006;2022-12-24T01:50:03;96732.66;;;11.28;87.62
41703;BME280;861;48.808;9.006;2022-12-24T01:52:40;96724.41;;;11.38;88.17
41703;BME280;861;48.808;9.006;2022-12-24T01:55:15;96734.19;;;11.29;88.40
41703;BME280;861;48.808;9.006;2022-12-24T01:57:54;96744.38;;;11.21;89.67
41703;BME280;861;48.808;9.006;2022-12-24T02:00:23;96738.94;;;11.14;90.32
41703;BME280;861;48.808;9.006;2022-12-24T02:02:53;96748.28;;;11.13;90.56
41703;BME280;861;48.808;9.006;2022-12-24T02:05:52;96745.56;;;11.17;89.28
41703;BME280;861;48.808;9.006;2022-12-24T02:08:22;96745.94;;;11.15;89.50
41703;BME280;861;48.808;9.006;2022-12-24T02:10:50;96743.63;;;11.07;88.77
41703;BME280;861;48.808;9.006;2022-12-24T02:13:20;96743.25;;;11.08;89.04
41703;BME280;861;48.808;9.006;2022-12-24T02:30:11;96730.88;;;10.82;87.73
41703;BME280;861;48.808;9.006;2022-12-24T02:33:06;96731.19;;;11.02;87.26
41703;BME280;861;48.808;9.006;2022-12-24T02:36:10;96723.00;;;11.09;86.07
41703;BME280;861;48.808;9.006;2022-12-24T02:39:03;96721.13;;;10.92;86.38
41703;BME280;861;48.808;9.006;2022-12-24T02:41:48;96737.44;;;11.06;86.06
41703;BME280;861;48.808;9.006;2022-12-24T02:44:50;96742.09;;;10.99;86.15
41703;BME280;861;48.808;9.006;2022-12-24T02:47:26;96741.75;;;10.97;85.13
41703;BME280;861;48.808;9.006;2022-12-24T02:49:54;96749.13;;;11.00;85.44
41703;BME280;861;48.808;9.006;2022-12-24T02:52:48;96767.41;;;10.92;86.23
41703;BME280;861;48.808;9.006;2022-12-24T02:55:23;96765.88;;;10.95;84.65
41703;BME280;861;48.808;9.006;2022-12-24T02:58:33;96762.78;;;10.82;84.24
41703;BME280;861;48.808;9.006;2022-12-24T03:08:46;96779.88;;;10.86;84.17
41703;BME280;861;48.808;9.006;2022-12-24T03:11:19;96781.88;;;10.71;84.76
41703;BME280;861;48.808;9.006;2022-12-24T03:13:49;96784.16;;;10.94;82.34
41703;BME280;861;48.808;9.006;2022-12-24T03:16:26;96779.13;;;10.78;83.52
41703;BME280;861;48.808;9.006;2022-12-24T03:18:57;96773.59;;;11.10;82.38
41703;BME280;861;48.808;9.006;2022-12-24T03:21:37;96799.31;;;10.99;81.79
41703;BME280;861;48.808;9.006;2022-12-24T03:24:06;96806.38;;;10.82;83.40
41703;BME280;861;48.808;9.006;2022-12-24T03:26:34;96800.94;;;10.82;82.43
41703;BME280;861;48.808;9.006;2022-12-24T03:29:07;96807.09;;;11.00;81.33
41703;BME280;861;48.808;9.006;2022-12-24T03:32:02;96805.59;;;10.89;81.83
41703;BME280;861;48.808;9.006;2022-12-24T03:34:29;96805.19;;;10.83;81.93
41703;BME280;861;48.808;9.006;2022-12-24T03:36:56;96804.00;;;10.98;82.36
41703;BME280;861;48.808;9.006;2022-12-24T03:39:23;96811.44;;;10.87;82.27
41703;BME280;861;48.808;9.006;2022-12-24T03:41:49;96814.94;;;10.70;82.77
41703;BME280;861;48.808;9.006;2022-12-24T03:44:15;96828.94;;;10.68;84.51
41703;BME280;861;48.808;9.006;2022-12-24T03:46:42;96822.75;;;10.47;84.74
41703;BME280;861;48.808;9.006;2022-12-24T03:49:08;96834.81;;;10.32;85.49
41703;BME280;861;48.808;9.006;2022-12-24T03:51:34;96832.06;;;10.28;85.56
41703;BME280;861;48.808;9.006;2022-12-24T03:54:00;96819.66;;;10.27;85.11
41703;BME280;861;48.808;9.006;2022-12-24T03:56:27;96813.03;;;10.28;85.15
41703;BME280;861;48.808;9.006;2022-12-24T03:58:53;96823.50;;;10.72;83.13
41703;BME280;861;48.808;9.006;2022-12-24T04:01:19;96828.59;;;10.49;85.39
41703;BME280;861;48.808;9.006;2022-12-24T04:03:45;96826.25;;;10.65;84.42
41703;BME280;861;48.808;9.006;2022-12-24T04:06:15;96826.22;;;10.58;84.32
41703;BME280;861;48.808;9.006;2022-12-24T04:08:43;96823.91;;;10.53;84.97
41703;BME280;861;48.808;9.006;2022-12-24T04:11:16;96821.97;;;10.43;85.67
41703;BME280;861;48.808;9.006;2022-12-24T04:13:43;96834.78;;;10.56;87.17
41703;BME280;861;48.808;9.006;2022-12-24T04:16:14;96824.25;;;10.87;83.57
41703;BME280;861;48.808;9.006;2022-12-24T04:18:41;96819.19;;;10.92;83.85
41703;BME280;861;48.808;9.006;2022-12-24T04:21:09;96827.78;;;10.73;84.48
41703;BME280;861;48.808;9.006;2022-12-24T04:23:39;96837.50;;;10.95;84.08
41703;BME280;861;48.808;9.006;2022-12-24T04:26:11;96832.84;;;10.74;85.33
41703;BME280;861;48.808;9.006;2022-12-24T04:28:40;96819.63;;;10.73;85.61
41703;BME280;861;48.808;9.006;2022-12-24T04:31:16;96810.28;;;10.67;86.40
41703;BME280;861;48.808;9.006;2022-12-24T04:33:44;96826.22;;;10.72;86.10
41703;BME280;861;48.808;9.006;2022-12-24T04:36:17;96837.84;;;10.94;84.76
41703;BME280;861;48.808;9.006;2022-12-24T04:38:47;96831.25;;;10.88;84.53
41703;BME280;861;48.808;9.006;2022-12-24T04:41:19;96841.03;;;10.57;86.43
41703;BME280;861;48.808;9.006;2022-12-24T04:43:47;96853.06;;;10.56;86.34
41703;BME280;861;48.808;9.006;2022-12-24T04:46:20;96860.84;;;10.82;85.83
41703;BME280;861;48.808;9.006;2022-12-24T04:48:52;96856.53;;;11.09;83.28
41703;BME280;861;48.808;9.006;2022-12-24T04:51:21;96863.13;;;11.12;82.35
41703;BME280;861;48.808;9.006;2022-12-24T04:53:48;96858.09;;;10.96;82.20
41703;BME280;861;48.808;9.006;2022-12-24T04:56:26;96873.25;;;11.08;81.82
41703;BME280;861;48.808;9.006;2022-12-24T04:58:54;96863.53;;;10.96;82.23
41703;BME280;861;48.808;9.006;2022-12-24T05:01:27;96858.88;;;10.86;82.17
41703;BME280;861;48.808;9.006;2022-12-24T05:03:56;96869.41;;;10.59;83.39
41703;BME280;861;48.808;9.006;2022-12-24T05:06:29;96870.97;;;10.53;84.32
41703;BME280;861;48.808;9.006;2022-12-24T05:08:59;96857.34;;;10.46;84.74
41703;BME280;861;48.808;9.006;2022-12-24T05:11:27;96855.41;;;10.43;84.82
41703;BME280;861;48.808;9.006;2022-12-24T05:13:53;96857.72;;;10.31;84.67
41703;BME280;861;48.808;9.006;2022-12-24T05:16:22;96865.91;;;10.45;84.59
41703;BME280;861;48.808;9.006;2022-12-24T05:18:51;96876.38;;;10.46;83.67
41703;BME280;861;48.808;9.006;2022-12-24T05:21:22;96872.13;;;10.63;82.62
41703;BME280;861;48.808;9.006;2022-12-24T05:23:51;96847.59;;;10.70;82.85
41703;BME280;861;48.808;9.006;2022-12-24T05:26:43;96852.69;;;10.86;81.63
41703;BME280;861;48.808;9.006;2022-12-24T05:29:14;96858.13;;;10.57;82.36
41703;BME280;861;48.808;9.006;2022-12-24T05:31:44;96860.44;;;10.62;80.61
41703;BME280;861;48.808;9.006;2022-12-24T05:34:14;96852.28;;;10.59;81.02
41703;BME280;861;48.808;9.006;2022-12-24T05:36:42;96852.66;;;10.78;80.05
41703;BME280;861;48.808;9.006;2022-12-24T05:39:15;96842.19;;;10.59;80.37
41703;BME280;861;48.808;9.006;2022-12-24T05:41:44;96861.59;;;10.82;79.51
41703;BME280;861;48.808;9.006;2022-12-24T05:44:11;96850.75;;;10.61;80.36
41703;BME280;861;48.808;9.006;2022-12-24T05:46:37;96849.56;;;10.80;79.12
41703;BME280;861;48.808;9.006;2022-12-24T05:49:03;96850.75;;;10.65;79.51
41703;BME280;861;48.808;9.006;2022-12-24T05:51:30;96862.03;;;10.60;79.62
41703;BME280;861;48.808;9.006;2022-12-24T05:53:56;96857.34;;;10.60;79.37
41703;BME280;861;48.808;9.006;2022-12-24T05:56:24;96861.22;;;10.56;79.67
41703;BME280;861;48.808;9.006;2022-12-24T05:58:54;96856.16;;;10.37;80.15
41703;BME280;861;48.808;9.006;2022-12-24T06:01:21;96865.91;;;10.59;79.10
41703;BME280;861;48.808;9.006;2022-12-24T06:03:49;96858.91;;;10.51;79.93
41703;BME280;861;48.808;9.006;2022-12-24T06:06:23;96853.47;;;10.47;79.80
41703;BME280;861;48.808;9.006;2022-12-24T06:08:55;96870.97;;;10.64;78.84
41703;BME280;861;48.808;9.006;2022-12-24T06:11:26;96880.31;;;10.63;78.07
41703;BME280;861;48.808;9.006;2022-12-24T06:13:54;96881.06;;;10.56;78.00
41703;BME280;861;48.808;9.006;2022-12-24T06:16:24;96874.44;;;10.22;80.22
41703;BME280;861;48.808;9.006;2022-12-24T06:21:19;96870.81;;;9.87;82.60
41703;BME280;861;48.808;9.006;2022-12-24T06:23:46;96885.97;;;9.91;82.12
41703;BME280;861;48.808;9.006;2022-12-24T06:26:19;96876.25;;;9.80;82.88
41703;BME280;861;48.808;9.006;2022-12-24T06:28:49;96887.50;;;9.82;82.27
41703;BME280;861;48.808;9.006;2022-12-24T06:31:21;96885.69;;;10.10;81.30
41703;BME280;861;48.808;9.006;2022-12-24T06:36:24;96902.28;;;9.91;81.88
41703;BME280;861;48.808;9.006;2022-12-24T06:38:53;96902.03;;;10.21;80.94
41703;BME280;861;48.808;9.006;2022-12-24T06:41:23;96915.25;;;10.26;80.07
41703;BME280;861;48.808;9.006;2022-12-24T06:43:52;96924.09;;;9.98;81.31
41703;BME280;861;48.808;9.006;2022-12-24T06:46:21;96925.25;;;9.97;81.65
41703;BME280;861;48.808;9.006;2022-12-24T06:48:48;96927.59;;;9.95;81.93
41703;BME280;861;48.808;9.006;2022-12-24T06:51:18;96940.44;;;10.05;81.36
41703;BME280;861;48.808;9.006;2022-12-24T06:53:45;96943.50;;;9.86;81.96
41703;BME280;861;48.808;9.006;2022-12-24T06:56:13;96951.69;;;10.00;81.90
41703;BME280;861;48.808;9.006;2022-12-24T06:58:42;96941.28;;;10.20;81.30
41703;BME280;861;48.808;9.006;2022-12-24T07:01:14;96944.72;;;10.06;81.10
41703;BME280;861;48.808;9.006;2022-12-24T07:03:43;96943.53;;;10.00;82.34
41703;BME280;861;48.808;9.006;2022-12-24T07:06:29;96928.75;;;9.94;82.47
41703;BME280;861;48.808;9.006;2022-12-24T07:08:56;96940.00;;;9.89;82.00
41703;BME280;861;48.808;9.006;2022-12-24T07:11:25;96945.94;;;10.12;82.18
41703;BME280;861;48.808;9.006;2022-12-24T07:13:52;96950.59;;;10.12;81.41
41703;BME280;861;48.808;9.006;2022-12-24T07:16:18;96951.78;;;10.14;81.79
41703;BME280;861;48.808;9.006;2022-12-24T07:18:45;96949.09;;;10.32;80.72
41703;BME280;861;48.808;9.006;2022-12-24T07:21:11;96949.09;;;10.32;81.18
41703;BME280;861;48.808;9.006;2022-12-24T07:23:37;96956.47;;;10.31;80.91
41703;BME280;861;48.808;9.006;2022-12-24T07:26:06;96963.13;;;10.44;80.59
41703;BME280;861;48.808;9.006;2022-12-24T07:28:33;96972.81;;;10.42;80.26
41703;BME280;861;48.808;9.006;2022-12-24T07:30:59;96987.53;;;10.16;80.44
41703;BME280;861;48.808;9.006;2022-12-24T07:33:26;96993.03;;;10.30;81.23
41703;BME280;861;48.808;9.006;2022-12-24T07:36:06;96985.28;;;10.43;79.47
41703;BME280;861;48.808;9.006;2022-12-24T07:38:37;96989.13;;;10.38;79.94
41703;BME280;861;48.808;9.006;2022-12-24T07:41:03;96995.38;;;10.42;79.74
41703;BME280;861;48.808;9.006;2022-12-24T07:43:32;96995.38;;;10.49;80.38
41703;BME280;861;48.808;9.006;2022-12-24T07:45:59;96998.47;;;10.30;80.79
41703;BME280;861;48.808;9.006;2022-12-24T07:48:28;96999.28;;;10.45;80.33
41703;BME280;861;48.808;9.006;2022-12-24T07:50:57;96996.56;;;10.41;80.82
41703;BME280;861;48.808;9.006;2022-12-24T07:53:26;96993.47;;;10.43;81.17
41703;BME280;861;48.808;9.006;2022-12-24T07:55:54;96993.09;;;10.58;80.22
41703;BME280;861;48.808;9.006;2022-12-24T07:58:22;96996.63;;;10.73;79.50
41703;BME280;861;48.808;9.006;2022-12-24T08:00:48;97002.88;;;10.84;79.12
41703;BME280;861;48.808;9.006;2022-12-24T08:03:20;97003.22;;;10.82;78.87
41703;BME280;861;48.808;9.006;2022-12-24T08:05:48;96997.75;;;10.58;79.64
41703;BME280;861;48.808;9.006;2022-12-24T08:08:14;96996.22;;;10.71;79.54
41703;BME280;861;48.808;9.006;2022-12-24T08:10:43;97000.53;;;10.90;78.94
41703;BME280;861;48.808;9.006;2022-12-24T08:13:12;97011.06;;;10.98;79.13
41703;BME280;861;48.808;9.006;2022-12-24T08:15:43;97009.44;;;10.65;78.74
41703;BME280;861;48.808;9.006;2022-12-24T08:18:11;97009.44;;;10.58;79.87
41703;BME280;861;48.808;9.006;2022-12-24T08:20:40;97013.34;;;10.78;78.89
41703;BME280;861;48.808;9.006;2022-12-24T08:23:08;97016.84;;;10.75;78.61
41703;BME280;861;48.808;9.006;2022-12-24T08:25:35;97016.84;;;10.82;78.54
41703;BME280;861;48.808;9.006;2022-12-24T08:28:04;97018.78;;;10.64;79.53
41703;BME280;861;48.808;9.006;2022-12-24T08:30:31;97036.59;;;10.41;79.95
41703;BME280;861;48.808;9.006;2022-12-24T08:32:57;97033.88;;;10.41;80.33
41703;BME280;861;48.808;9.006;2022-12-24T08:35:23;97031.50;;;10.25;80.21
41703;BME280;861;48.808;9.006;2022-12-24T08:37:49;97024.16;;;10.36;80.59
41703;BME280;861;48.808;9.006;2022-12-24T08:40:15;97029.28;;;10.62;80.26
41703;BME280;861;48.808;9.006;2022-12-24T08:42:42;97031.53;;;10.36;80.01
41703;BME280;861;48.808;9.006;2022-12-24T08:45:09;97036.16;;;10.28;79.96
41703;BME280;861;48.808;9.006;2022-12-24T08:47:38;97033.44;;;10.28;79.79
41703;BME280;861;48.808;9.006;2022-12-24T08:50:07;97038.22;;;10.52;80.57
41703;BME280;861;48.808;9.006;2022-12-24T08:52:35;97046.41;;;10.63;79.20
41703;BME280;861;48.808;9.006;2022-12-24T08:55:02;97050.19;;;10.30;79.01
41703;BME280;861;48.808;9.006;2022-12-24T08:57:29;97050.88;;;10.10;81.25
41703;BME280;861;48.808;9.006;2022-12-24T08:59:55;97040.84;;;10.31;79.65
41703;BME280;861;48.808;9.006;2022-12-24T09:02:21;97054.78;;;10.23;79.21
41703;BME280;861;48.808;9.006;2022-12-24T09:04:48;97056.31;;;10.17;79.69
41703;BME280;861;48.808;9.006;2022-12-24T09:07:14;97061.06;;;10.37;78.72
41703;BME280;861;48.808;9.006;2022-12-24T09:09:40;97065.66;;;10.23;79.40
41703;BME280;861;48.808;9.006;2022-12-24T09:12:08;97066.84;;;10.22;80.68
41703;BME280;861;48.808;9.006;2022-12-24T09:14:35;97069.81;;;9.99;79.84
41703;BME280;861;48.808;9.006;2022-12-24T09:17:01;97073.06;;;10.19;79.53
41703;BME280;861;48.808;9.006;2022-12-24T09:19:27;97069.25;;;10.37;78.26
41703;BME280;861;48.808;9.006;2022-12-24T09:21:53;97079.03;;;10.49;79.54
41703;BME280;861;48.808;9.006;2022-12-24T09:24:20;97076.72;;;10.58;78.70
41703;BME280;861;48.808;9.006;2022-12-24T09:26:46;97084.50;;;10.59;78.43
41703;BME280;861;48.808;9.006;2022-12-24T09:29:15;97088.78;;;10.57;79.02
41703;BME280;861;48.808;9.006;2022-12-24T09:31:42;97098.63;;;11.04;77.19
41703;BME280;861;48.808;9.006;2022-12-24T09:34:08;97090.78;;;10.84;76.90
41703;BME280;861;48.808;9.006;2022-12-24T09:36:35;97088.50;;;11.01;77.33
41703;BME280;861;48.808;9.006;2022-12-24T09:39:02;97090.47;;;11.07;77.38
41703;BME280;861;48.808;9.006;2022-12-24T09:44:47;97097.09;;;11.17;76.58
41703;BME280;861;48.808;9.006;2022-12-24T09:47:36;97095.56;;;11.37;76.68
41703;BME280;861;48.808;9.006;2022-12-24T09:50:53;97093.25;;;11.67;75.07
41703;BME280;861;48.808;9.006;2022-12-24T09:53:51;97075.69;;;11.85;75.74
41703;BME280;861;48.808;9.006;2022-12-24T09:56:42;97075.97;;;12.33;73.28
41703;BME280;861;48.808;9.006;2022-12-24T09:59:21;97081.91;;;12.07;73.81
41703;BME280;861;48.808;9.006;2022-12-24T10:01:54;97087.78;;;11.81;73.62
41703;BME280;861;48.808;9.006;2022-12-24T10:04:28;97085.47;;;11.69;75.78
41703;BME280;861;48.808;9.006;2022-12-24T10:10:45;97094.00;;;11.74;75.84
41703;BME280;861;48.808;9.006;2022-12-24T10:13:49;97094.44;;;11.66;75.84
41703;BME280;861;48.808;9.006;2022-12-24T10:16:58;97088.19;;;11.65;75.44
41703;BME280;861;48.808;9.006;2022-12-24T10:26:25;97103.38;;;11.66;75.34
41703;BME280;861;48.808;9.006;2022-12-24T10:29:19;97108.41;;;11.82;74.50
41703;BME280;861;48.808;9.006;2022-12-24T10:32:18;97120.50;;;11.63;75.62
41703;BME280;861;48.808;9.006;2022-12-24T10:37:46;97116.19;;;11.34;76.37
41703;BME280;861;48.808;9.006;2022-12-24T10:40:57;97103.34;;;11.56;75.51
41703;BME280;861;48.808;9.006;2022-12-24T10:43:29;97121.31;;;11.85;74.17
41703;BME280;861;48.808;9.006;2022-12-24T10:46:04;97118.56;;;11.71;74.50
41703;BME280;861;48.808;9.006;2022-12-24T10:49:11;97122.84;;;11.65;75.46
41703;BME280;861;48.808;9.006;2022-12-24T10:51:55;97124.03;;;11.74;74.51
41703;BME280;861;48.808;9.006;2022-12-24T10:54:28;97122.47;;;11.91;74.56
41703;BME280;861;48.808;9.006;2022-12-24T10:57:22;97116.63;;;11.96;76.04
41703;BME280;861;48.808;9.006;2022-12-24T10:59:56;97126.34;;;12.00;73.82
41703;BME280;861;48.808;9.006;2022-12-24T11:02:35;97114.63;;;12.10;72.65
41703;BME280;861;48.808;9.006;2022-12-24T11:05:28;97105.31;;;11.76;74.46
41703;BME280;861;48.808;9.006;2022-12-24T11:08:14;97111.16;;;11.82;73.70
41703;BME280;861;48.808;9.006;2022-12-24T11:11:18;97104.88;;;12.09;74.08
41703;BME280;861;48.808;9.006;2022-12-24T11:16:35;97112.66;;;12.25;73.12
41703;BME280;861;48.808;9.006;2022-12-24T11:19:17;97116.19;;;12.04;73.20
41703;BME280;861;48.808;9.006;2022-12-24T11:22:14;97113.88;;;11.96;75.40
41703;BME280;861;48.808;9.006;2022-12-24T11:24:45;97115.84;;;11.81;76.02
41703;BME280;861;48.808;9.006;2022-12-24T11:27:46;97116.63;;;11.64;77.19
41703;BME280;861;48.808;9.006;2022-12-24T11:35:30;97117.81;;;11.74;75.46
41703;BME280;861;48.808;9.006;2022-12-24T11:40:40;97109.59;;;11.77;76.07
41703;BME280;861;48.808;9.006;2022-12-24T11:43:19;97111.56;;;11.73;75.66
41703;BME280;861;48.808;9.006;2022-12-24T11:45:55;97117.00;;;11.87;75.30
41703;BME280;861;48.808;9.006;2022-12-24T11:48:32;97122.06;;;11.89;76.25
41703;BME280;861;48.808;9.006;2022-12-24T11:51:20;97120.53;;;11.88;77.55
41703;BME280;861;48.808;9.006;2022-12-24T11:54:13;97116.22;;;11.97;76.35
41703;BME280;861;48.808;9.006;2022-12-24T11:56:52;97114.59;;;12.28;74.30
41703;BME280;861;48.808;9.006;2022-12-24T11:59:43;97109.97;;;11.90;76.64
41703;BME280;861;48.808;9.006;2022-12-24T12:02:30;97119.66;;;12.29;74.61
41703;BME280;861;48.808;9.006;2022-12-24T12:05:18;97120.38;;;12.48;73.74
41703;BME280;861;48.808;9.006;2022-12-24T12:08:09;97115.69;;;12.48;73.08
41703;BME280;861;48.808;9.006;2022-12-24T12:10:47;97109.88;;;12.43;73.44
41703;BME280;861;48.808;9.006;2022-12-24T12:13:28;97102.81;;;12.49;73.62
41703;BME280;861;48.808;9.006;2022-12-24T12:16:44;97104.06;;;12.33;73.99
41703;BME280;861;48.808;9.006;2022-12-24T12:19:57;97105.25;;;12.29;75.55
41703;BME280;861;48.808;9.006;2022-12-24T12:23:14;97107.53;;;12.45;74.08
41703;BME280;861;48.808;9.006;2022-12-24T12:26:27;97105.59;;;12.34;73.19
41703;BME280;861;48.808;9.006;2022-12-24T12:29:29;97109.09;;;12.42;73.05
41703;BME280;861;48.808;9.006;2022-12-24T12:32:25;97115.72;;;12.41;74.06
41703;BME280;861;48.808;9.006;2022-12-24T12:35:39;97123.06;;;12.65;71.46
41703;BME280;861;48.808;9.006;2022-12-24T12:38:24;97120.72;;;12.64;71.64
41703;BME280;861;48.808;9.006;2022-12-24T12:47:44;97138.31;;;12.45;72.33
41703;BME280;861;48.808;9.006;2022-12-24T12:51:16;97126.88;;;12.78;70.21
41703;BME280;861;48.808;9.006;2022-12-24T12:55:00;97119.78;;;13.02;72.72
41703;BME280;861;48.808;9.006;2022-12-24T12:57:51;97114.91;;;13.34;69.18
41703;BME280;861;48.808;9.006;2022-12-24T13:00:21;97109.72;;;13.46;69.98
41703;BME280;861;48.808;9.006;2022-12-24T13:03:47;97110.72;;;13.70;68.77
41703;BME280;861;48.808;9.006;2022-12-24T13:07:22;97105.22;;;13.73;66.60
41703;BME280;861;48.808;9.006;2022-12-24T13:20:47;97098.06;;;13.87;66.35
41703;BME280;861;48.808;9.006;2022-12-24T13:23:24;97095.00;;;13.81;66.57
41703;BME280;861;48.808;9.006;2022-12-24T13:25:57;97104.56;;;13.55;68.81
41703;BME280;861;48.808;9.006;2022-12-24T13:33:53;97115.56;;;13.52;68.24
41703;BME280;861;48.808;9.006;2022-12-24T13:37:03;97113.84;;;13.68;67.12
41703;BME280;861;48.808;9.006;2022-12-24T13:50:48;97122.19;;;13.51;68.22
41703;BME280;861;48.808;9.006;2022-12-24T13:53:56;97117.16;;;13.46;68.17
41703;BME280;861;48.808;9.006;2022-12-24T13:56:30;97110.22;;;13.34;68.66
41703;BME280;861;48.808;9.006;2022-12-24T13:59:38;97108.25;;;13.35;68.22
41703;BME280;861;48.808;9.006;2022-12-24T14:02:20;97099.81;;;13.08;69.03
41703;BME280;861;48.808;9.006;2022-12-24T14:04:50;97097.41;;;13.21;68.21
41703;BME280;861;48.808;9.006;2022-12-24T14:07:19;97089.91;;;13.32;68.32
41703;BME280;861;48.808;9.006;2022-12-24T14:09:51;97098.19;;;13.18;68.20
41703;BME280;861;48.808;9.006;2022-12-24T14:12:49;97103.22;;;13.30;66.62
41703;BME280;861;48.808;9.006;2022-12-24T14:16:02;97096.84;;;13.47;68.22
41703;BME280;861;48.808;9.006;2022-12-24T14:18:41;97091.19;;;13.68;68.12
41703;BME280;861;48.808;9.006;2022-12-24T14:21:25;97087.31;;;13.65;67.42
41703;BME280;861;48.808;9.006;2022-12-24T14:24:03;97080.97;;;13.75;67.36
41703;BME280;861;48.808;9.006;2022-12-24T14:27:11;97088.72;;;13.80;67.77
41703;BME280;861;48.808;9.006;2022-12-24T14:30:03;97094.16;;;13.88;69.05
41703;BME280;861;48.808;9.006;2022-12-24T14:32:41;97096.88;;;13.88;69.01
41703;BME280;861;48.808;9.006;2022-12-24T14:37:45;97089.25;;;13.65;66.12
41703;BME280;861;48.808;9.006;2022-12-24T14:40:31;97089.34;;;13.58;66.53
41703;BME280;861;48.808;9.006;2022-12-24T14:47:27;97100.13;;;13.24;65.82
41703;BME280;861;48.808;9.006;2022-12-24T14:51:12;97109.63;;;13.02;67.67
41703;BME280;861;48.808;9.006;2022-12-24T14:54:42;97105.31;;;13.05;67.88
41703;BME280;861;48.808;9.006;2022-12-24T14:59:59;97115.09;;;13.02;67.45
41703;BME280;861;48.808;9.006;2022-12-24T15:02:50;97132.34;;;12.82;67.58
41703;BME280;861;48.808;9.006;2022-12-24T15:05:29;97130.75;;;12.88;67.95
41703;BME280;861;48.808;9.006;2022-12-24T15:08:08;97111.59;;;12.95;68.38
41703;BME280;861;48.808;9.006;2022-12-24T15:10:45;97116.69;;;12.89;68.13
41703;BME280;861;48.808;9.006;2022-12-24T15:13:44;97100.75;;;12.77;68.51
41703;BME280;861;48.808;9.006;2022-12-24T15:16:31;97105.03;;;12.78;69.25
41703;BME280;861;48.808;9.006;2022-12-24T15:22:02;97111.97;;;13.04;68.32
41703;BME280;861;48.808;9.006;2022-12-24T15:24:46;97120.56;;;13.02;68.27
41703;BME280;861;48.808;9.006;2022-12-24T15:27:21;97118.94;;;13.12;68.33
41703;BME280;861;48.808;9.006;2022-12-24T15:29:55;97118.84;;;13.26;68.03
41703;BME280;861;48.808;9.006;2022-12-24T15:32:23;97130.16;;;13.31;67.41
41703;BME280;861;48.808;9.006;2022-12-24T15:34:53;97144.97;;;13.37;67.86
41703;BME280;861;48.808;9.006;2022-12-24T15:37:30;97143.84;;;13.31;67.40
41703;BME280;861;48.808;9.006;2022-12-24T15:40:21;97145.41;;;13.29;67.00
41703;BME280;861;48.808;9.006;2022-12-24T15:42:51;97143.78;;;13.35;67.76
41703;BME280;861;48.808;9.006;2022-12-24T15:45:26;97145.72;;;13.41;67.15
41703;BME280;861;48.808;9.006;2022-12-24T15:48:09;97156.34;;;13.29;67.71
41703;BME280;861;48.808;9.006;2022-12-24T15:50:47;97156.34;;;13.25;67.33